Time;durP1;ratioP1;P1;durP2;ratioP2;P2;SDS_P1;SDS_P2;PMS_P1;PMS_P2;Temp;Humidity;BMP_temperature;BMP_pressure;BME280_temperature;BME280_humidity;BME280_pressure;Samples;Min_cycle;Max_cycle;Signal;HPM_P1;HPM_P2
2021/10/30 00:00:45;;;;;;;11.60;7.40;;;;;;;4.63;71.74;98132.95;117232;1177;58735;-72
2021/10/30 00:03:14;;;;;;;12.50;7.40;;;;;;;4.63;71.13;98132.27;117198;1177;69592;-78
2021/10/30 00:05:45;;;;;;;12.10;8.40;;;;;;;4.64;69.64;98135.34;117073;1177;67713;-73
2021/10/30 00:08:16;;;;;;;16.30;11.00;;;;;;;4.64;71.50;98133.09;117033;1174;69218;-70
2021/10/30 00:10:45;;;;;;;12.00;7.70;;;;;;;4.61;70.74;98135.23;117036;1177;58726;-65
2021/10/30 00:13:15;;;;;;;14.10;8.90;;;;;;;4.58;70.37;98135.37;117103;1178;58703;-64
2021/10/30 00:15:44;;;;;;;10.80;7.20;;;;;;;4.54;70.70;98135.15;117215;1177;68776;-71
2021/10/30 00:18:14;;;;;;;17.70;13.10;;;;;;;4.52;70.38;98130.41;117059;1177;68495;-68
2021/10/30 00:20:44;;;;;;;16.10;10.10;;;;;;;4.46;73.27;98137.54;117213;1176;68627;-69
2021/10/30 00:23:13;;;;;;;24.10;17.10;;;;;;;4.34;73.60;98137.63;117023;1177;58741;-69
2021/10/30 00:25:43;;;;;;;;;;;;;;;4.21;73.57;98134.66;117335;1177;58691;-76
2021/10/30 00:28:13;;;;;;;18.10;11.30;;;;;;;4.17;71.15;98130.99;117245;1178;70508;-71
2021/10/30 00:30:43;;;;;;;23.80;16.00;;;;;;;4.16;72.18;98132.77;117252;1177;67458;-70
2021/10/30 00:33:12;;;;;;;;;;;;;;;4.14;73.99;98131.44;117025;1177;69201;-65
2021/10/30 00:35:41;;;;;;;25.40;16.80;;;;;;;4.14;76.10;98130.77;117100;1177;58722;-75
2021/10/30 00:38:11;;;;;;;21.80;15.20;;;;;;;4.11;76.60;98132.41;117093;1177;58764;-72
2021/10/30 00:40:40;;;;;;;22.50;15.60;;;;;;;4.08;76.97;98125.25;117130;1177;70497;-74
2021/10/30 00:43:10;;;;;;;15.70;10.60;;;;;;;4.08;76.24;98125.08;117014;1177;67465;-65
2021/10/30 00:45:39;;;;;;;13.90;8.70;;;;;;;4.11;75.70;98124.31;117005;1176;68215;-68
2021/10/30 00:48:09;;;;;;;24.30;16.10;;;;;;;4.15;75.30;98123.31;117065;1177;58723;-65
2021/10/30 00:50:39;;;;;;;20.10;14.30;;;;;;;4.13;77.16;98127.88;116961;1177;58744;-65
2021/10/30 00:53:11;;;;;;;17.20;12.20;;;;;;;4.12;76.01;98128.77;116955;1177;68856;-66
2021/10/30 00:55:42;;;;;;;21.00;13.80;;;;;;;4.10;75.51;98127.44;117179;1176;68216;-65
2021/10/30 00:58:15;;;;;;;20.20;14.20;;;;;;;4.07;76.31;98127.02;117098;1177;69132;-65
2021/10/30 01:00:45;;;;;;;17.40;12.10;;;;;;;4.04;75.04;98123.68;117162;1177;59177;-64
2021/10/30 01:03:15;;;;;;;17.90;11.40;;;;;;;3.99;74.72;98122.11;117009;1177;58694;-66
2021/10/30 01:05:45;;;;;;;24.00;14.90;;;;;;;3.96;74.24;98122.92;116997;1177;70555;-65
2021/10/30 01:08:15;;;;;;;15.80;10.60;;;;;;;3.92;76.07;98123.41;116919;1177;68384;-64
2021/10/30 01:10:47;;;;;;;13.30;8.50;;;;;;;3.90;74.98;98124.19;117202;1177;69236;-66
2021/10/30 01:13:17;;;;;;;20.60;13.40;;;;;;;3.88;74.89;98120.80;116964;1177;58774;-64
2021/10/30 01:15:47;;;;;;;19.30;13.00;;;;;;;3.86;76.11;98121.73;117240;1174;58693;-65
2021/10/30 01:18:17;;;;;;;12.60;9.70;;;;;;;3.84;76.16;98123.16;117293;1176;69760;-67
2021/10/30 01:20:47;;;;;;;13.50;9.10;;;;;;;3.83;74.44;98122.52;117224;1177;67712;-67
2021/10/30 01:23:16;;;;;;;13.30;9.70;;;;;;;3.80;73.77;98123.32;117280;1177;68545;-67
2021/10/30 01:25:46;;;;;;;9.90;6.50;;;;;;;3.79;72.79;98123.86;116967;1177;58742;-69
2021/10/30 01:28:16;;;;;;;13.10;8.10;;;;;;;3.81;72.46;98121.03;116961;1177;58724;-65
2021/10/30 01:30:47;;;;;;;23.50;16.40;;;;;;;3.81;75.06;98116.89;117128;1177;69856;-65
2021/10/30 01:33:16;;;;;;;15.50;9.90;;;;;;;3.76;76.22;98116.39;117231;1176;68308;-67
2021/10/30 01:35:47;;;;;;;21.00;13.90;;;;;;;3.72;74.39;98115.99;116933;1177;69068;-65
2021/10/30 01:38:17;;;;;;;13.40;9.50;;;;;;;3.67;74.78;98114.11;117020;1177;58690;-65
2021/10/30 01:40:49;;;;;;;15.10;9.50;;;;;;;3.62;73.82;98114.60;117182;1177;58732;-67
2021/10/30 01:43:19;;;;;;;15.40;10.90;;;;;;;3.59;73.63;98114.88;117079;1177;69979;-65
2021/10/30 01:45:49;;;;;;;11.50;8.20;;;;;;;3.56;74.76;98116.54;117179;1177;67908;-65
2021/10/30 01:48:31;;;;;;;11.70;9.60;;;;;;;3.53;73.70;98117.65;117211;1177;69390;-65
2021/10/30 01:51:02;;;;;;;13.50;9.50;;;;;;;3.51;74.33;98120.33;116968;1177;59176;-66
2021/10/30 01:53:33;;;;;;;17.40;12.00;;;;;;;3.49;74.41;98121.58;117063;1177;58831;-65
2021/10/30 01:56:04;;;;;;;20.40;13.40;;;;;;;3.48;74.82;98120.63;116960;1177;70693;-65
2021/10/30 01:58:34;;;;;;;14.50;9.60;;;;;;;3.47;74.57;98121.15;117140;1177;68302;-67
2021/10/30 02:01:06;;;;;;;21.40;14.30;;;;;;;3.46;74.43;98120.48;117078;1177;69065;-65
2021/10/30 02:03:37;;;;;;;10.10;6.90;;;;;;;3.43;77.59;98121.64;117167;1177;59104;-67
2021/10/30 02:06:07;;;;;;;15.40;8.60;;;;;;;3.44;73.87;98123.35;117029;1177;58710;-69
2021/10/30 02:08:37;;;;;;;12.40;8.90;;;;;;;3.46;74.06;98122.91;117356;1176;70362;-65
2021/10/30 02:11:07;;;;;;;17.30;10.90;;;;;;;3.48;75.05;98126.64;117040;1177;68217;-69
2021/10/30 02:13:37;;;;;;;17.80;11.20;;;;;;;3.44;76.64;98119.70;117116;1177;68452;-64
2021/10/30 02:16:10;;;;;;;16.20;10.90;;;;;;;3.41;75.99;98119.11;117160;1177;58793;-70
2021/10/30 02:18:41;;;;;;;14.70;8.80;;;;;;;3.41;74.98;98122.37;117367;1177;58802;-65
2021/10/30 02:21:10;;;;;;;13.60;8.70;;;;;;;3.46;75.29;98124.13;117431;1176;69754;-65
2021/10/30 02:23:41;;;;;;;12.20;7.90;;;;;;;3.48;76.41;98126.27;117235;1177;67477;-65
2021/10/30 02:26:12;;;;;;;16.00;12.20;;;;;;;3.49;76.13;98125.38;117221;1177;68213;-64
2021/10/30 02:28:45;;;;;;;14.90;9.80;;;;;;;3.46;76.40;98126.02;117345;1176;58681;-64
2021/10/30 02:31:17;;;;;;;23.00;13.70;;;;;;;3.39;76.16;98126.73;117389;1175;58741;-65
2021/10/30 02:33:47;;;;;;;17.00;10.30;;;;;;;3.30;76.52;98128.25;117433;1177;68633;-65
2021/10/30 02:36:16;;;;;;;21.00;14.50;;;;;;;3.22;76.29;98124.90;117312;1167;68321;-64
2021/10/30 02:38:46;;;;;;;20.80;14.30;;;;;;;3.14;78.16;98126.36;117412;1177;68244;-65
2021/10/30 02:41:16;;;;;;;17.70;11.50;;;;;;;3.05;78.86;98126.79;117336;1176;58710;-64
2021/10/30 02:43:45;;;;;;;17.10;12.60;;;;;;;2.97;78.78;98132.02;117352;1177;58748;-71
2021/10/30 02:46:15;;;;;;;16.30;10.70;;;;;;;2.92;78.89;98130.32;117406;1175;69843;-69
2021/10/30 02:48:45;;;;;;;25.70;14.90;;;;;;;2.89;77.56;98134.17;117330;1176;68387;-64
2021/10/30 02:51:14;;;;;;;21.40;14.40;;;;;;;2.87;79.08;98134.77;117239;1177;69033;-64
2021/10/30 02:53:46;;;;;;;17.00;11.70;;;;;;;2.85;79.99;98133.45;117406;1175;58738;-64
2021/10/30 02:56:15;;;;;;;14.90;10.20;;;;;;;2.84;78.84;98131.59;117325;1176;58690;-64
2021/10/30 02:58:47;;;;;;;14.30;10.00;;;;;;;2.82;78.58;98134.39;117193;1176;70310;-65
2021/10/30 03:01:17;;;;;;;16.90;11.00;;;;;;;2.80;79.27;98134.28;117300;1177;67273;-64
2021/10/30 03:03:47;;;;;;;22.90;14.10;;;;;;;2.77;80.03;98136.59;117000;1177;69248;-65
2021/10/30 03:06:16;;;;;;;18.10;11.70;;;;;;;2.74;80.84;98134.11;116946;1174;58767;-65
2021/10/30 03:08:46;;;;;;;20.60;13.20;;;;;;;2.74;80.51;98132.04;117274;1176;58712;-66
2021/10/30 03:11:16;;;;;;;18.20;12.40;;;;;;;2.75;81.05;98136.34;117263;1177;70611;-65
2021/10/30 03:13:47;;;;;;;14.10;8.60;;;;;;;2.76;81.08;98134.73;117281;1169;68326;-66
2021/10/30 03:16:17;;;;;;;13.50;8.30;;;;;;;2.79;78.07;98129.86;117447;1176;68392;-65
2021/10/30 03:18:48;;;;;;;20.00;13.40;;;;;;;2.87;77.60;98132.70;117016;1177;58709;-67
2021/10/30 03:21:18;;;;;;;;;;;;;;;2.93;81.14;98133.73;116957;1177;58729;-64
2021/10/30 03:23:48;;;;;;;22.90;15.50;;;;;;;2.95;82.02;98133.13;117005;1177;70578;-66
2021/10/30 03:26:18;;;;;;;21.90;14.10;;;;;;;2.95;82.86;98134.67;117000;1177;68284;-64
2021/10/30 03:28:47;;;;;;;22.00;14.80;;;;;;;2.97;83.03;98131.52;117017;1177;68447;-66
2021/10/30 03:31:17;;;;;;;23.00;15.30;;;;;;;3.05;83.41;98133.01;116977;1177;58774;-67
2021/10/30 03:33:48;;;;;;;22.10;15.10;;;;;;;3.11;83.32;98131.79;116961;1177;59184;-65
2021/10/30 03:36:17;;;;;;;20.60;13.50;;;;;;;3.14;82.73;98134.44;116918;1177;69578;-64
2021/10/30 03:38:48;;;;;;;19.60;13.40;;;;;;;3.14;82.43;98130.13;116993;1177;67507;-65
2021/10/30 03:41:18;;;;;;;23.30;15.00;;;;;;;3.15;82.49;98130.64;116940;1177;69115;-72
2021/10/30 03:43:47;;;;;;;22.30;14.10;;;;;;;3.16;81.48;98131.80;117114;1177;58729;-72
2021/10/30 03:46:17;;;;;;;16.50;10.80;;;;;;;2.90;78.29;98137.26;117054;1177;58687;-65
2021/10/30 03:48:47;;;;;;;19.40;13.10;;;;;;;2.86;78.99;98135.32;117022;1177;70479;-65
2021/10/30 03:51:17;;;;;;;32.90;20.70;;;;;;;2.79;79.06;98138.27;117077;1177;67659;-66
2021/10/30 03:53:46;;;;;;;31.20;20.30;;;;;;;2.57;78.48;98136.86;117026;1177;69256;-69
2021/10/30 03:56:15;;;;;;;26.10;16.50;;;;;;;2.31;80.41;98141.21;117159;1176;58752;-66
2021/10/30 03:58:44;;;;;;;18.40;13.30;;;;;;;2.26;80.53;98142.04;117137;1177;58813;-74
2021/10/30 04:01:13;;;;;;;16.10;11.20;;;;;;;2.24;79.59;98140.91;117069;1177;70595;-68
2021/10/30 04:03:44;;;;;;;23.60;16.50;;;;;;;2.21;79.84;98135.98;117006;1177;67760;-77
2021/10/30 04:06:14;;;;;;;19.50;11.80;;;;;;;2.18;81.95;98130.75;116995;1177;68414;-68
2021/10/30 04:08:44;;;;;;;22.10;15.50;;;;;;;2.12;80.27;98129.02;117057;1177;58726;-72
2021/10/30 04:11:15;;;;;;;27.30;18.30;;;;;;;2.07;79.29;98130.38;116984;1177;58709;-74
2021/10/30 04:13:50;;;;;;;24.00;15.80;;;;;;;1.97;81.58;98128.20;116945;1178;70347;-69
2021/10/30 04:16:20;;;;;;;25.50;15.40;;;;;;;1.92;83.43;98128.02;117044;1177;67708;-64
2021/10/30 04:18:49;;;;;;;23.30;14.60;;;;;;;1.92;83.97;98129.40;117363;1175;69255;-76
2021/10/30 04:21:18;;;;;;;21.20;14.00;;;;;;;1.92;83.40;98135.41;116975;1177;58729;-71
2021/10/30 04:23:47;;;;;;;19.10;12.60;;;;;;;1.91;81.95;98134.23;116955;1177;59167;-70
2021/10/30 04:26:16;;;;;;;11.50;8.20;;;;;;;1.92;81.87;98135.23;117226;1177;68805;-64
2021/10/30 04:28:45;;;;;;;19.10;13.90;;;;;;;1.93;80.50;98139.32;117155;1177;67665;-65
2021/10/30 04:31:21;;;;;;;28.40;16.50;;;;;;;1.94;81.43;98142.91;117182;1177;68178;-66
2021/10/30 04:33:53;;;;;;;22.20;13.50;;;;;;;1.93;81.60;98141.22;117164;1177;58738;-71
2021/10/30 04:36:25;;;;;;;24.40;15.00;;;;;;;1.94;82.30;98140.34;116994;1177;58799;-69
2021/10/30 04:38:55;;;;;;;20.80;14.50;;;;;;;1.94;83.21;98138.27;117386;1177;69792;-64
2021/10/30 04:41:25;;;;;;;16.50;11.00;;;;;;;1.96;81.27;98134.95;117215;1174;68396;-64
2021/10/30 04:43:55;;;;;;;22.20;14.10;;;;;;;1.96;81.22;98131.36;117320;1176;68853;-66
2021/10/30 04:46:24;;;;;;;13.60;8.70;;;;;;;1.96;80.22;98129.79;117058;1177;58749;-65
2021/10/30 04:48:54;;;;;;;11.00;7.60;;;;;;;2.00;79.45;98129.69;117054;1177;58755;-65
2021/10/30 04:51:23;;;;;;;31.80;22.70;;;;;;;2.04;79.08;98132.15;117200;1177;69860;-66
2021/10/30 04:53:52;;;;;;;21.70;16.00;;;;;;;2.07;79.65;98130.52;117094;1177;67896;-65
2021/10/30 04:56:21;;;;;;;19.00;14.50;;;;;;;2.07;79.81;98132.06;116968;1177;69177;-64
2021/10/30 04:58:50;;;;;;;16.40;13.70;;;;;;;2.07;79.57;98135.35;117244;1176;58738;-70
2021/10/30 05:01:19;;;;;;;24.90;17.20;;;;;;;2.06;79.01;98137.80;117416;1177;58657;-68
2021/10/30 05:03:48;;;;;;;27.40;19.00;;;;;;;2.04;80.82;98142.14;117246;1176;69759;-67
2021/10/30 05:06:17;;;;;;;22.10;15.80;;;;;;;2.03;81.09;98138.72;117210;1177;67475;-67
2021/10/30 05:08:46;;;;;;;23.80;16.90;;;;;;;2.02;80.62;98140.11;117314;1176;69735;-69
2021/10/30 05:11:15;;;;;;;20.80;15.50;;;;;;;2.02;80.05;98141.49;117352;1176;58738;-75
2021/10/30 05:13:44;;;;;;;33.60;22.90;;;;;;;2.01;81.51;98143.60;117241;1177;58710;-66
2021/10/30 05:16:13;;;;;;;37.70;21.40;;;;;;;2.00;81.34;98140.19;117409;1176;69792;-66
2021/10/30 05:18:42;;;;;;;25.40;17.10;;;;;;;2.00;80.65;98141.39;117272;1176;68295;-69
2021/10/30 05:21:11;;;;;;;16.10;12.00;;;;;;;2.00;80.17;98145.34;117325;1176;69355;-69
2021/10/30 05:23:40;;;;;;;21.50;14.80;;;;;;;2.00;79.71;98149.96;117321;1177;58748;-65
2021/10/30 05:26:10;;;;;;;20.40;13.00;;;;;;;2.02;79.85;98152.50;117255;1176;58725;-67
2021/10/30 05:28:39;;;;;;;20.20;14.40;;;;;;;2.04;79.88;98153.31;116995;1177;71115;-67
2021/10/30 05:31:08;;;;;;;16.10;11.80;;;;;;;2.07;80.69;98153.77;117002;1177;67645;-64
2021/10/30 05:33:37;;;;;;;20.60;13.70;;;;;;;2.10;80.38;98155.74;116986;1177;69212;-66
2021/10/30 05:36:31;;;;;;;25.20;16.60;;;;;;;2.15;81.82;98157.67;117034;1177;58725;-65
2021/10/30 05:39:15;;;;;;;30.20;20.20;;;;;;;2.19;80.65;98157.39;117188;1177;58732;-67
2021/10/30 05:41:44;;;;;;;15.90;11.00;;;;;;;2.21;80.82;98156.46;117412;1176;70579;-64
2021/10/30 05:44:13;;;;;;;16.20;10.30;;;;;;;2.24;79.25;98156.91;117332;1177;68481;-68
2021/10/30 05:46:43;;;;;;;16.50;11.80;;;;;;;2.26;78.28;98154.95;117378;1177;69220;-65
2021/10/30 05:49:14;;;;;;;26.60;16.80;;;;;;;2.28;78.01;98155.56;117389;1176;59097;-64
2021/10/30 05:51:43;;;;;;;14.90;9.90;;;;;;;2.32;77.76;98158.73;117172;1177;58714;-68
2021/10/30 05:54:12;;;;;;;28.70;18.80;;;;;;;2.37;77.29;98160.67;117236;1174;69411;-66
2021/10/30 05:56:41;;;;;;;19.10;13.70;;;;;;;2.41;77.75;98161.23;117275;1177;68426;-67
2021/10/30 05:59:10;;;;;;;18.20;15.00;;;;;;;2.47;77.69;98168.45;117334;1177;69348;-64
2021/10/30 06:01:39;;;;;;;34.20;22.00;;;;;;;2.54;77.61;98172.90;117238;1174;58716;-64
2021/10/30 06:04:08;;;;;;;19.10;13.30;;;;;;;2.62;78.35;98176.99;117353;1177;58703;-68
2021/10/30 06:06:37;;;;;;;19.10;12.40;;;;;;;2.71;77.33;98172.42;117287;1176;69620;-70
2021/10/30 06:09:06;;;;;;;16.30;13.20;;;;;;;2.82;77.07;98170.56;117212;1177;68583;-67
2021/10/30 06:11:35;;;;;;;19.70;14.30;;;;;;;2.94;76.92;98168.80;117255;1177;69521;-67
2021/10/30 06:14:06;;;;;;;28.20;18.50;;;;;;;3.09;76.70;98171.64;116999;1177;58764;-65
2021/10/30 06:16:35;;;;;;;15.60;11.00;;;;;;;3.26;76.85;98170.25;117227;1177;58751;-68
2021/10/30 06:19:05;;;;;;;23.10;16.40;;;;;;;3.48;76.48;98171.63;117149;1177;70497;-67
2021/10/30 06:21:34;;;;;;;19.10;15.00;;;;;;;3.83;76.16;98173.71;117223;1177;67728;-68
2021/10/30 06:24:03;;;;;;;17.40;10.20;;;;;;;4.35;75.66;98175.02;117386;1176;69331;-65
2021/10/30 06:26:33;;;;;;;45.40;29.10;;;;;;;4.93;74.04;98174.27;117252;1177;59175;-67
2021/10/30 06:29:03;;;;;;;42.00;27.30;;;;;;;5.55;73.08;98177.73;117373;1174;58732;-66
2021/10/30 06:31:32;;;;;;;45.50;30.70;;;;;;;6.26;72.67;98180.65;117406;1177;69668;-65
2021/10/30 06:34:01;;;;;;;46.60;34.40;;;;;;;7.00;70.33;98179.30;117137;1176;68397;-66
2021/10/30 06:36:31;;;;;;;55.20;37.10;;;;;;;7.71;68.10;98175.57;117273;1176;69252;-66
2021/10/30 06:39:00;;;;;;;36.60;25.20;;;;;;;8.40;65.87;98174.19;117171;1177;58732;-65
2021/10/30 06:41:47;;;;;;;40.20;29.20;;;;;;;9.12;62.83;98169.98;117411;1177;58790;-66
2021/10/30 06:44:16;;;;;;;44.10;33.50;;;;;;;9.72;63.63;98171.86;117359;1176;70551;-67
2021/10/30 06:46:47;;;;;;;60.40;41.70;;;;;;;10.23;57.13;98169.41;117027;1177;69062;-66
2021/10/30 06:49:16;;;;;;;51.10;36.50;;;;;;;10.65;58.20;98167.98;117307;1177;68577;-66
2021/10/30 06:51:47;;;;;;;38.80;28.30;;;;;;;11.15;56.66;98164.70;117393;1177;58712;-67
2021/10/30 06:54:16;;;;;;;36.50;28.40;;;;;;;11.72;58.26;98163.81;117234;1176;58725;-66
2021/10/30 06:56:45;;;;;;;41.20;29.90;;;;;;;12.29;54.11;98164.02;117258;1177;71152;-67
2021/10/30 06:59:14;;;;;;;69.00;49.20;;;;;;;12.88;54.74;98166.24;116932;1177;68325;-67
2021/10/30 07:01:43;;;;;;;66.20;52.30;;;;;;;13.46;51.84;98164.80;117269;1177;69304;-65
2021/10/30 07:04:13;;;;;;;54.80;45.00;;;;;;;14.02;50.83;98167.27;117242;1176;58688;-66
2021/10/30 07:06:42;;;;;;;53.00;43.70;;;;;;;14.55;45.56;98169.75;117388;1177;58713;-67
2021/10/30 07:09:11;;;;;;;69.30;54.10;;;;;;;14.96;43.45;98161.20;117341;1177;70500;-65
2021/10/30 07:11:44;;;;;;;49.30;39.50;;;;;;;15.33;45.22;98160.67;117387;1176;68306;-66
2021/10/30 07:14:13;;;;;;;60.90;48.70;;;;;;;15.85;44.58;98162.83;117179;1176;69301;-66
2021/10/30 07:16:43;;;;;;;66.30;53.60;;;;;;;16.19;42.08;98163.17;117081;1177;58734;-66
2021/10/30 07:19:12;;;;;;;56.30;45.00;;;;;;;16.33;40.22;98164.81;117313;1176;58684;-65
2021/10/30 07:21:41;;;;;;;51.20;41.80;;;;;;;16.72;42.72;98166.60;117338;1175;70652;-66
2021/10/30 07:24:09;;;;;;;46.80;38.50;;;;;;;17.21;44.33;98164.39;116972;1177;67744;-66
2021/10/30 07:26:38;;;;;;;54.30;43.40;;;;;;;17.73;39.83;98164.39;117247;1177;69223;-70
2021/10/30 07:29:07;;;;;;;43.20;36.60;;;;;;;17.87;37.78;98161.76;117323;1176;58725;-66
2021/10/30 07:31:36;;;;;;;27.10;22.90;;;;;;;17.96;38.99;98163.93;117252;1177;58719;-67
2021/10/30 07:34:05;;;;;;;30.40;25.20;;;;;;;18.11;38.71;98163.56;117084;1177;68839;-66
2021/10/30 07:36:35;;;;;;;27.00;21.30;;;;;;;18.38;39.55;98165.30;117211;1177;67634;-65
2021/10/30 07:39:04;;;;;;;36.10;29.60;;;;;;;18.56;35.95;98164.17;117226;1177;69611;-65
2021/10/30 07:41:33;;;;;;;30.00;24.70;;;;;;;18.16;36.80;98164.21;117204;1176;59023;-65
2021/10/30 07:44:02;;;;;;;68.30;60.80;;;;;;;17.92;37.42;98158.31;117276;1176;58729;-66
2021/10/30 07:46:31;;;;;;;21.10;18.00;;;;;;;18.37;37.76;98161.20;117290;1176;70607;-65
2021/10/30 07:49:00;;;;;;;18.10;14.20;;;;;;;18.66;36.59;98154.20;117401;1176;69044;-66
2021/10/30 07:51:29;;;;;;;16.70;13.20;;;;;;;19.08;35.42;98146.70;117332;1177;69880;-66
2021/10/30 07:53:58;;;;;;;15.10;12.20;;;;;;;19.11;34.83;98145.53;117055;1177;58743;-66
2021/10/30 07:56:28;;;;;;;19.40;17.10;;;;;;;19.38;34.80;98145.27;117327;1176;58662;-68
2021/10/30 07:58:57;;;;;;;;;;;;;;;19.52;34.11;98139.46;117347;1177;70054;-65
2021/10/30 08:01:25;;;;;;;15.70;12.20;;;;;;;19.53;33.69;98142.92;117355;1177;68193;-65
2021/10/30 08:03:54;;;;;;;14.60;11.50;;;;;;;19.29;33.74;98135.89;117313;1176;69214;-65
2021/10/30 08:06:23;;;;;;;15.40;12.10;;;;;;;19.27;33.75;98134.66;117292;1176;58787;-65
2021/10/30 08:08:52;;;;;;;16.30;11.20;;;;;;;19.23;33.37;98137.30;117269;1176;58703;-65
2021/10/30 08:11:21;;;;;;;12.10;9.50;;;;;;;19.12;33.57;98136.27;117368;1175;70543;-69
2021/10/30 08:13:50;;;;;;;12.80;10.90;;;;;;;19.08;34.04;98132.29;117020;1176;68666;-68
2021/10/30 08:16:19;;;;;;;15.00;11.80;;;;;;;19.22;33.53;98132.70;117247;1177;69184;-66
2021/10/30 08:18:48;;;;;;;14.30;10.80;;;;;;;19.43;33.10;98131.38;117124;1176;58745;-65
2021/10/30 08:21:17;;;;;;;16.80;12.70;;;;;;;19.31;33.28;98132.18;117395;1176;58757;-72
2021/10/30 08:23:46;;;;;;;14.60;11.30;;;;;;;19.50;33.51;98134.41;117382;1176;71225;-66
2021/10/30 08:26:17;;;;;;;15.80;11.50;;;;;;;19.91;32.96;98134.78;117388;1177;68498;-64
2021/10/30 08:28:46;;;;;;;14.40;11.10;;;;;;;20.27;32.02;98131.36;117244;1177;68646;-65
2021/10/30 08:31:15;;;;;;;16.30;11.70;;;;;;;20.49;31.78;98129.48;117212;1177;58806;-68
2021/10/30 08:33:44;;;;;;;17.20;13.40;;;;;;;20.76;31.43;98128.23;117257;1177;58710;-73
2021/10/30 08:36:13;;;;;;;12.80;9.40;;;;;;;21.19;30.70;98131.77;117361;1177;70349;-66
2021/10/30 08:38:42;;;;;;;13.50;11.70;;;;;;;21.70;29.97;98130.28;117256;1177;68375;-64
2021/10/30 08:41:11;;;;;;;17.30;12.60;;;;;;;22.01;29.35;98127.61;117414;1177;69250;-71
2021/10/30 08:43:40;;;;;;;13.60;9.60;;;;;;;22.19;28.92;98126.41;117085;1177;58745;-70
2021/10/30 08:46:09;;;;;;;14.70;11.10;;;;;;;22.62;28.88;98128.13;117297;1177;58730;-70
2021/10/30 08:48:39;;;;;;;15.30;12.00;;;;;;;22.98;27.87;98122.08;117317;1177;70567;-64
2021/10/30 08:51:08;;;;;;;;;;;;;;;23.26;27.51;98121.92;117144;1176;68480;-66
2021/10/30 08:53:37;;;;;;;14.00;11.30;;;;;;;23.38;27.06;98120.21;117138;1177;69850;-66
2021/10/30 08:56:08;;;;;;;13.80;10.60;;;;;;;23.06;27.05;98119.02;117202;1177;58730;-64
2021/10/30 08:58:37;;;;;;;13.50;11.90;;;;;;;23.06;26.90;98117.45;117336;1177;58767;-65
2021/10/30 09:01:09;;;;;;;12.90;10.50;;;;;;;22.98;26.58;98114.46;117392;1176;70579;-65
2021/10/30 09:03:38;;;;;;;16.20;12.90;;;;;;;22.38;27.39;98121.11;117305;1176;67591;-67
2021/10/30 09:06:08;;;;;;;;;;;;;;;21.84;28.42;98117.66;117185;1176;69270;-64
2021/10/30 09:08:37;;;;;;;14.80;11.10;;;;;;;22.16;28.09;98117.64;117414;1176;58751;-68
2021/10/30 09:11:09;;;;;;;14.80;12.00;;;;;;;22.52;27.62;98116.54;117354;1176;58719;-66
2021/10/30 09:13:38;;;;;;;15.80;11.60;;;;;;;22.38;27.67;98111.83;117172;1177;68820;-65
2021/10/30 09:16:09;;;;;;;14.50;11.10;;;;;;;21.91;28.27;98113.07;117431;1176;68472;-67
2021/10/30 09:18:40;;;;;;;14.60;10.80;;;;;;;22.02;27.95;98106.02;116993;1168;69381;-64
2021/10/30 09:21:15;;;;;;;13.90;10.40;;;;;;;22.40;27.75;98106.91;117267;1177;58805;-68
2021/10/30 09:23:50;;;;;;;16.30;12.40;;;;;;;22.97;26.94;98097.52;117293;1177;58799;-65
2021/10/30 09:26:25;;;;;;;15.60;12.40;;;;;;;22.94;26.64;98099.40;117410;1176;70262;-64
2021/10/30 09:29:00;;;;;;;16.90;11.10;;;;;;;23.07;26.71;98094.30;117143;1178;68328;-64
2021/10/30 09:31:30;;;;;;;16.20;12.60;;;;;;;23.32;26.59;98086.51;117405;1176;67639;-64
2021/10/30 09:34:02;;;;;;;15.50;11.70;;;;;;;23.69;25.83;98085.82;117389;1177;58750;-66
2021/10/30 09:36:43;;;;;;;13.50;11.20;;;;;;;23.66;25.84;98085.69;117000;1177;58774;-64
2021/10/30 09:39:17;;;;;;;14.20;10.30;;;;;;;23.79;25.60;98080.83;117252;1176;69905;-64
2021/10/30 09:41:52;;;;;;;14.60;10.90;;;;;;;24.35;25.17;98081.13;117352;1176;68323;-64
2021/10/30 09:44:26;;;;;;;13.80;11.70;;;;;;;24.92;24.38;98081.23;117200;1178;69827;-64
2021/10/30 09:46:58;;;;;;;12.10;9.20;;;;;;;25.45;24.20;98079.65;117358;1176;58735;-68
2021/10/30 09:49:36;;;;;;;14.40;10.60;;;;;;;25.90;23.31;98083.45;117428;1176;58809;-65
2021/10/30 09:52:05;;;;;;;11.80;9.60;;;;;;;26.17;22.87;98081.16;117382;1176;71258;-68
2021/10/30 09:54:45;;;;;;;13.70;9.80;;;;;;;26.48;22.35;98074.64;117249;1177;67866;-64
2021/10/30 09:57:24;;;;;;;11.90;10.40;;;;;;;26.61;21.99;98075.39;117382;1177;69401;-64
2021/10/30 09:59:54;;;;;;;12.60;10.10;;;;;;;26.24;22.39;98074.54;117356;1177;58735;-64
2021/10/30 10:02:26;;;;;;;11.30;10.10;;;;;;;26.14;22.31;98070.01;117199;1177;58694;-64
2021/10/30 10:04:59;;;;;;;10.80;9.10;;;;;;;25.42;23.23;98059.48;117446;1177;69574;-64
2021/10/30 10:07:30;;;;;;;13.10;9.80;;;;;;;26.18;22.36;98062.38;117312;1177;68378;-64
2021/10/30 10:10:00;;;;;;;15.20;11.00;;;;;;;26.33;22.14;98061.41;117413;1177;68458;-67
2021/10/30 10:12:32;;;;;;;10.50;9.40;;;;;;;25.89;22.50;98054.16;117342;1177;58752;-65
2021/10/30 10:15:02;;;;;;;11.10;8.80;;;;;;;26.56;22.23;98056.33;117298;1177;58696;-65
2021/10/30 10:17:32;;;;;;;12.40;10.20;;;;;;;27.10;21.30;98050.86;117273;1177;70532;-66
2021/10/30 10:20:08;;;;;;;11.20;9.80;;;;;;;27.10;21.39;98044.97;117416;1177;66524;-65
2021/10/30 10:22:40;;;;;;;10.00;8.40;;;;;;;26.19;22.15;98045.06;117441;1175;68459;-65
2021/10/30 10:25:31;;;;;;;10.90;8.90;;;;;;;26.50;21.72;98037.29;117382;1176;58741;-66
2021/10/30 10:28:17;;;;;;;9.90;7.50;;;;;;;26.66;21.40;98033.21;117379;1176;58720;-64
2021/10/30 10:30:57;;;;;;;15.40;10.20;;;;;;;27.37;21.09;98024.29;117455;1175;71225;-65
2021/10/30 10:33:27;;;;;;;9.00;7.80;;;;;;;27.04;21.08;98021.42;117387;1176;67530;-66
2021/10/30 10:36:22;;;;;;;10.80;8.20;;;;;;;27.22;20.67;98018.69;117430;1177;69616;-65
2021/10/30 10:38:57;;;;;;;10.80;9.70;;;;;;;27.12;20.70;98017.39;117375;1176;58684;-65
2021/10/30 10:41:46;;;;;;;11.90;8.60;;;;;;;26.61;21.67;98015.29;117413;1176;58704;-70
2021/10/30 10:44:27;;;;;;;11.70;7.80;;;;;;;26.96;21.34;98009.98;117297;1176;71116;-64
2021/10/30 10:47:00;;;;;;;11.00;8.10;;;;;;;27.06;20.82;98013.85;117400;1176;66503;-72
2021/10/30 10:49:46;;;;;;;9.70;6.80;;;;;;;26.86;21.15;98008.75;117443;1177;69339;-64
2021/10/30 10:52:19;;;;;;;9.50;8.50;;;;;;;27.44;20.88;98008.60;117294;1176;58728;-65
2021/10/30 10:57:27;;;;;;;9.90;7.20;;;;;;;27.08;20.57;97997.48;117237;1177;71187;-64
2021/10/30 11:00:14;;;;;;;8.90;6.80;;;;;;;27.40;20.62;97993.48;117042;1177;68423;-64
2021/10/30 11:02:46;;;;;;;10.30;8.00;;;;;;;27.72;20.04;97993.98;117056;1177;69849;-64
2021/10/30 11:05:24;;;;;;;10.70;8.10;;;;;;;27.64;20.05;97993.14;117074;1177;58757;-65
2021/10/30 11:08:13;;;;;;;11.00;9.10;;;;;;;27.33;20.56;97990.35;117262;1177;58719;-64
2021/10/30 11:10:45;;;;;;;12.20;8.60;;;;;;;26.99;20.99;97985.20;117414;1177;70577;-66
2021/10/30 11:13:20;;;;;;;10.00;7.20;;;;;;;27.23;20.55;97984.89;117273;1176;68756;-64
2021/10/30 11:15:56;;;;;;;10.00;8.30;;;;;;;26.86;21.07;97979.09;117370;1177;69256;-66
2021/10/30 11:21:21;;;;;;;10.30;9.10;;;;;;;27.04;20.52;97977.75;117043;1177;59132;-65
2021/10/30 11:24:00;;;;;;;10.00;8.30;;;;;;;25.78;22.20;97982.48;117310;1178;70131;-66
2021/10/30 11:26:34;;;;;;;11.00;8.70;;;;;;;26.54;21.44;97979.54;117260;1177;68505;-66
2021/10/30 11:29:05;;;;;;;11.20;9.70;;;;;;;26.75;21.21;97972.37;117395;1177;68956;-66
2021/10/30 11:31:34;;;;;;;9.80;8.80;;;;;;;25.35;22.38;97973.41;117356;1176;58729;-66
2021/10/30 11:34:08;;;;;;;9.70;8.30;;;;;;;25.23;22.90;97968.91;117308;1177;58703;-64
2021/10/30 11:36:41;;;;;;;10.00;7.80;;;;;;;25.83;22.41;97971.52;117312;1176;70679;-66
2021/10/30 11:39:12;;;;;;;9.00;7.90;;;;;;;26.20;21.84;97968.41;117471;1177;68502;-67